sensor_id;sensor_type;location;lat;lon;timestamp;pressure;altitude;pressure_sealevel;temperature
70415;BMP280;57837;52.064;113.478;2024-03-06T00:01:13;94151.25;;;-13.35
70415;BMP280;57837;52.064;113.478;2024-03-06T00:04:17;94143.66;;;-13.48
70415;BMP280;57837;52.064;113.478;2024-03-06T00:07:22;94148.63;;;-13.53
70415;BMP280;57837;52.064;113.478;2024-03-06T00:10:25;94150.66;;;-13.61
70415;BMP280;57837;52.064;113.478;2024-03-06T00:13:29;94145.22;;;-13.68
70415;BMP280;57837;52.064;113.478;2024-03-06T00:16:33;94148.13;;;-13.50
70415;BMP280;57837;52.064;113.478;2024-03-06T00:19:37;94149.72;;;-13.31
70415;BMP280;57837;52.064;113.478;2024-03-06T00:22:41;94150.16;;;-13.18
70415;BMP280;57837;52.064;113.478;2024-03-06T00:25:45;94144.94;;;-12.88
70415;BMP280;57837;52.064;113.478;2024-03-06T00:28:49;94156.47;;;-12.68
70415;BMP280;57837;52.064;113.478;2024-03-06T00:31:53;94149.25;;;-12.22
70415;BMP280;57837;52.064;113.478;2024-03-06T00:34:56;94149.88;;;-11.68
70415;BMP280;57837;52.064;113.478;2024-03-06T00:38:00;94154.75;;;-11.07
70415;BMP280;57837;52.064;113.478;2024-03-06T00:41:06;94156.56;;;-10.38
70415;BMP280;57837;52.064;113.478;2024-03-06T00:44:10;94157.94;;;-9.69
70415;BMP280;57837;52.064;113.478;2024-03-06T00:47:14;94155.03;;;-9.48
70415;BMP280;57837;52.064;113.478;2024-03-06T00:50:18;94159.91;;;-9.21
70415;BMP280;57837;52.064;113.478;2024-03-06T00:53:24;94158.72;;;-8.61
70415;BMP280;57837;52.064;113.478;2024-03-06T00:56:28;94159.03;;;-7.97
70415;BMP280;57837;52.064;113.478;2024-03-06T00:59:31;94169.53;;;-7.61
70415;BMP280;57837;52.064;113.478;2024-03-06T01:02:38;94175.13;;;-7.29
70415;BMP280;57837;52.064;113.478;2024-03-06T01:05:42;94171.50;;;-7.02
70415;BMP280;57837;52.064;113.478;2024-03-06T01:08:46;94178.66;;;-6.58
70415;BMP280;57837;52.064;113.478;2024-03-06T01:11:50;94176.97;;;-6.54
70415;BMP280;57837;52.064;113.478;2024-03-06T01:14:53;94176.50;;;-6.47
70415;BMP280;57837;52.064;113.478;2024-03-06T01:17:57;94181.75;;;-6.61
70415;BMP280;57837;52.064;113.478;2024-03-06T01:21:00;94170.28;;;-5.99
70415;BMP280;57837;52.064;113.478;2024-03-06T01:24:04;94172.81;;;-5.99
70415;BMP280;57837;52.064;113.478;2024-03-06T01:27:08;94172.44;;;-5.47
70415;BMP280;57837;52.064;113.478;2024-03-06T01:30:12;94162.75;;;-5.00
70415;BMP280;57837;52.064;113.478;2024-03-06T01:33:16;94158.25;;;-5.07
70415;BMP280;57837;52.064;113.478;2024-03-06T01:36:19;94160.34;;;-5.09
70415;BMP280;57837;52.064;113.478;2024-03-06T01:39:23;94162.34;;;-4.90
70415;BMP280;57837;52.064;113.478;2024-03-06T01:42:27;94164.56;;;-4.40
70415;BMP280;57837;52.064;113.478;2024-03-06T01:45:31;94164.84;;;-4.17
70415;BMP280;57837;52.064;113.478;2024-03-06T01:48:36;94156.66;;;-3.86
70415;BMP280;57837;52.064;113.478;2024-03-06T01:51:47;94160.78;;;-3.93
70415;BMP280;57837;52.064;113.478;2024-03-06T01:54:51;94160.47;;;-3.92
70415;BMP280;57837;52.064;113.478;2024-03-06T01:57:56;94152.75;;;-3.83
70415;BMP280;57837;52.064;113.478;2024-03-06T02:01:00;94159.53;;;-4.00
70415;BMP280;57837;52.064;113.478;2024-03-06T02:04:06;94145.41;;;-4.01
70415;BMP280;57837;52.064;113.478;2024-03-06T02:07:13;94149.94;;;-3.94
70415;BMP280;57837;52.064;113.478;2024-03-06T02:10:17;94142.94;;;-3.57
70415;BMP280;57837;52.064;113.478;2024-03-06T02:13:21;94142.59;;;-3.12
70415;BMP280;57837;52.064;113.478;2024-03-06T02:16:24;94143.28;;;-2.95
70415;BMP280;57837;52.064;113.478;2024-03-06T02:19:42;94137.63;;;-2.73
70415;BMP280;57837;52.064;113.478;2024-03-06T02:22:46;94139.81;;;-2.91
70415;BMP280;57837;52.064;113.478;2024-03-06T02:25:50;94136.28;;;-2.86
70415;BMP280;57837;52.064;113.478;2024-03-06T02:28:55;94127.50;;;-2.73
70415;BMP280;57837;52.064;113.478;2024-03-06T02:31:59;94121.31;;;-2.02
70415;BMP280;57837;52.064;113.478;2024-03-06T02:35:06;94116.97;;;-1.59
70415;BMP280;57837;52.064;113.478;2024-03-06T02:38:12;94117.84;;;-1.75
70415;BMP280;57837;52.064;113.478;2024-03-06T02:41:16;94116.19;;;-1.63
70415;BMP280;57837;52.064;113.478;2024-03-06T02:44:21;94120.34;;;-1.32
70415;BMP280;57837;52.064;113.478;2024-03-06T02:47:25;94107.63;;;-1.10
70415;BMP280;57837;52.064;113.478;2024-03-06T02:50:28;94105.47;;;-1.08
70415;BMP280;57837;52.064;113.478;2024-03-06T02:53:33;94108.06;;;-1.04
70415;BMP280;57837;52.064;113.478;2024-03-06T02:56:35;94103.25;;;-1.09
70415;BMP280;57837;52.064;113.478;2024-03-06T02:59:40;94104.25;;;-0.91
70415;BMP280;57837;52.064;113.478;2024-03-06T03:02:43;94103.44;;;-0.69
70415;BMP280;57837;52.064;113.478;2024-03-06T03:05:47;94105.13;;;-0.50
70415;BMP280;57837;52.064;113.478;2024-03-06T03:08:51;94103.09;;;-0.07
70415;BMP280;57837;52.064;113.478;2024-03-06T03:11:56;94099.88;;;0.44
70415;BMP280;57837;52.064;113.478;2024-03-06T03:14:59;94101.25;;;0.78
70415;BMP280;57837;52.064;113.478;2024-03-06T03:18:03;94093.09;;;0.62
70415;BMP280;57837;52.064;113.478;2024-03-06T03:21:09;94093.31;;;0.90
70415;BMP280;57837;52.064;113.478;2024-03-06T03:24:13;94092.50;;;0.76
70415;BMP280;57837;52.064;113.478;2024-03-06T03:27:17;94088.06;;;0.18
70415;BMP280;57837;52.064;113.478;2024-03-06T03:30:21;94081.66;;;-0.06
70415;BMP280;57837;52.064;113.478;2024-03-06T03:33:25;94078.47;;;0.48
70415;BMP280;57837;52.064;113.478;2024-03-06T03:36:29;94073.97;;;0.86
70415;BMP280;57837;52.064;113.478;2024-03-06T03:39:32;94072.38;;;1.22
70415;BMP280;57837;52.064;113.478;2024-03-06T03:42:38;94073.13;;;1.26
70415;BMP280;57837;52.064;113.478;2024-03-06T03:45:42;94065.41;;;1.08
70415;BMP280;57837;52.064;113.478;2024-03-06T03:48:46;94065.47;;;0.64
70415;BMP280;57837;52.064;113.478;2024-03-06T03:51:49;94059.28;;;0.14
70415;BMP280;57837;52.064;113.478;2024-03-06T03:54:54;94056.19;;;0.38
70415;BMP280;57837;52.064;113.478;2024-03-06T03:57:57;94055.41;;;0.85
70415;BMP280;57837;52.064;113.478;2024-03-06T04:01:01;94054.88;;;1.17
70415;BMP280;57837;52.064;113.478;2024-03-06T04:04:05;94043.28;;;1.33
70415;BMP280;57837;52.064;113.478;2024-03-06T04:07:11;94049.69;;;1.02
70415;BMP280;57837;52.064;113.478;2024-03-06T04:10:15;94049.59;;;0.81
70415;BMP280;57837;52.064;113.478;2024-03-06T04:13:19;94042.47;;;0.50
70415;BMP280;57837;52.064;113.478;2024-03-06T04:16:24;94036.56;;;0.39
70415;BMP280;57837;52.064;113.478;2024-03-06T04:19:28;94032.66;;;0.52
70415;BMP280;57837;52.064;113.478;2024-03-06T04:22:32;94024.13;;;0.81
70415;BMP280;57837;52.064;113.478;2024-03-06T04:25:36;94029.19;;;0.78
70415;BMP280;57837;52.064;113.478;2024-03-06T04:28:40;94012.56;;;0.40
70415;BMP280;57837;52.064;113.478;2024-03-06T04:31:44;94016.66;;;0.51
70415;BMP280;57837;52.064;113.478;2024-03-06T04:34:48;94008.47;;;0.86
70415;BMP280;57837;52.064;113.478;2024-03-06T04:37:52;94011.88;;;1.08
70415;BMP280;57837;52.064;113.478;2024-03-06T04:40:56;94000.66;;;1.34
70415;BMP280;57837;52.064;113.478;2024-03-06T04:43:59;93998.44;;;1.22
70415;BMP280;57837;52.064;113.478;2024-03-06T04:47:04;93996.94;;;1.14
70415;BMP280;57837;52.064;113.478;2024-03-06T04:50:09;93995.72;;;0.83
70415;BMP280;57837;52.064;113.478;2024-03-06T04:53:13;93995.31;;;0.74
70415;BMP280;57837;52.064;113.478;2024-03-06T04:56:16;93996.44;;;0.83
70415;BMP280;57837;52.064;113.478;2024-03-06T04:59:21;93995.03;;;0.93
70415;BMP280;57837;52.064;113.478;2024-03-06T05:02:25;93987.50;;;1.18
70415;BMP280;57837;52.064;113.478;2024-03-06T05:05:30;93983.16;;;1.25
70415;BMP280;57837;52.064;113.478;2024-03-06T05:08:50;93979.91;;;1.32
70415;BMP280;57837;52.064;113.478;2024-03-06T05:12:09;93976.28;;;1.54
70415;BMP280;57837;52.064;113.478;2024-03-06T05:15:30;93973.38;;;1.66
70415;BMP280;57837;52.064;113.478;2024-03-06T05:18:49;93968.31;;;1.63
70415;BMP280;57837;52.064;113.478;2024-03-06T05:22:10;93966.09;;;1.65
70415;BMP280;57837;52.064;113.478;2024-03-06T05:25:33;93964.28;;;1.62
70415;BMP280;57837;52.064;113.478;2024-03-06T05:28:53;93952.25;;;1.59
70415;BMP280;57837;52.064;113.478;2024-03-06T05:32:13;93956.53;;;1.05
70415;BMP280;57837;52.064;113.478;2024-03-06T05:35:33;93957.50;;;0.76
70415;BMP280;57837;52.064;113.478;2024-03-06T05:38:53;93951.56;;;0.57
70415;BMP280;57837;52.064;113.478;2024-03-06T05:42:13;93953.41;;;0.64
70415;BMP280;57837;52.064;113.478;2024-03-06T05:45:33;93944.53;;;1.20
70415;BMP280;57837;52.064;113.478;2024-03-06T05:48:55;93944.25;;;1.82
70415;BMP280;57837;52.064;113.478;2024-03-06T05:52:14;93943.44;;;2.38
70415;BMP280;57837;52.064;113.478;2024-03-06T05:55:34;93935.41;;;2.43
70415;BMP280;57837;52.064;113.478;2024-03-06T05:58:54;93939.75;;;2.50
70415;BMP280;57837;52.064;113.478;2024-03-06T06:01:58;93935.13;;;2.16
70415;BMP280;57837;52.064;113.478;2024-03-06T06:05:01;93932.22;;;1.82
70415;BMP280;57837;52.064;113.478;2024-03-06T06:08:25;93926.03;;;1.55
70415;BMP280;57837;52.064;113.478;2024-03-06T06:11:29;93919.09;;;1.62
70415;BMP280;57837;52.064;113.478;2024-03-06T06:14:32;93921.63;;;1.34
70415;BMP280;57837;52.064;113.478;2024-03-06T06:17:35;93919.34;;;0.97
70415;BMP280;57837;52.064;113.478;2024-03-06T06:20:41;93922.25;;;0.92
70415;BMP280;57837;52.064;113.478;2024-03-06T06:23:45;93921.56;;;1.06
70415;BMP280;57837;52.064;113.478;2024-03-06T06:26:49;93918.66;;;1.07
70415;BMP280;57837;52.064;113.478;2024-03-06T06:29:53;93915.75;;;1.12
70415;BMP280;57837;52.064;113.478;2024-03-06T06:32:59;93914.69;;;1.20
70415;BMP280;57837;52.064;113.478;2024-03-06T06:36:02;93922.34;;;1.20
70415;BMP280;57837;52.064;113.478;2024-03-06T06:39:05;93908.84;;;1.06
70415;BMP280;57837;52.064;113.478;2024-03-06T06:42:08;93907.81;;;1.31
70415;BMP280;57837;52.064;113.478;2024-03-06T06:45:13;93896.88;;;1.59
70415;BMP280;57837;52.064;113.478;2024-03-06T06:48:16;93893.94;;;1.36
70415;BMP280;57837;52.064;113.478;2024-03-06T06:51:19;93897.22;;;1.47
70415;BMP280;57837;52.064;113.478;2024-03-06T06:54:23;93889.56;;;1.65
70415;BMP280;57837;52.064;113.478;2024-03-06T06:57:26;93882.28;;;1.74
70415;BMP280;57837;52.064;113.478;2024-03-06T07:00:30;93886.69;;;1.59
70415;BMP280;57837;52.064;113.478;2024-03-06T07:03:33;93896.16;;;1.55
70415;BMP280;57837;52.064;113.478;2024-03-06T07:06:37;93889.19;;;1.38
70415;BMP280;57837;52.064;113.478;2024-03-06T07:09:40;93900.44;;;0.98
70415;BMP280;57837;52.064;113.478;2024-03-06T07:12:44;93892.75;;;0.87
70415;BMP280;57837;52.064;113.478;2024-03-06T07:15:48;93896.78;;;0.99
70415;BMP280;57837;52.064;113.478;2024-03-06T07:18:50;93892.44;;;1.10
70415;BMP280;57837;52.064;113.478;2024-03-06T07:21:53;93893.16;;;1.00
70415;BMP280;57837;52.064;113.478;2024-03-06T07:24:57;93892.00;;;0.76
70415;BMP280;57837;52.064;113.478;2024-03-06T07:28:01;93887.22;;;0.67
70415;BMP280;57837;52.064;113.478;2024-03-06T07:31:05;93884.34;;;0.73
70415;BMP280;57837;52.064;113.478;2024-03-06T07:34:08;93877.09;;;0.82
70415;BMP280;57837;52.064;113.478;2024-03-06T07:37:12;93874.22;;;0.94
70415;BMP280;57837;52.064;113.478;2024-03-06T07:40:17;93878.56;;;0.93
70415;BMP280;57837;52.064;113.478;2024-03-06T07:43:20;93881.09;;;0.90
70415;BMP280;57837;52.064;113.478;2024-03-06T07:46:24;93875.25;;;0.72
70415;BMP280;57837;52.064;113.478;2024-03-06T07:49:27;93883.63;;;0.76
70415;BMP280;57837;52.064;113.478;2024-03-06T07:52:30;93887.53;;;0.52
70415;BMP280;57837;52.064;113.478;2024-03-06T07:55:34;93885.25;;;0.29
70415;BMP280;57837;52.064;113.478;2024-03-06T07:58:38;93886.00;;;0.26
70415;BMP280;57837;52.064;113.478;2024-03-06T08:01:42;93876.47;;;0.16
70415;BMP280;57837;52.064;113.478;2024-03-06T08:04:45;93886.25;;;0.10
70415;BMP280;57837;52.064;113.478;2024-03-06T08:07:50;93883.41;;;0.22
70415;BMP280;57837;52.064;113.478;2024-03-06T08:10:53;93887.78;;;0.22
70415;BMP280;57837;52.064;113.478;2024-03-06T08:13:58;93889.19;;;0.16
70415;BMP280;57837;52.064;113.478;2024-03-06T08:17:02;93883.31;;;0.05
70415;BMP280;57837;52.064;113.478;2024-03-06T08:20:08;93880.03;;;0.04
70415;BMP280;57837;52.064;113.478;2024-03-06T08:23:11;93879.56;;;-0.12
70415;BMP280;57837;52.064;113.478;2024-03-06T08:26:14;93884.63;;;-0.16
70415;BMP280;57837;52.064;113.478;2024-03-06T08:29:18;93883.91;;;-0.16
70415;BMP280;57837;52.064;113.478;2024-03-06T08:32:22;93883.97;;;-0.06
70415;BMP280;57837;52.064;113.478;2024-03-06T08:35:26;93884.75;;;0.06
70415;BMP280;57837;52.064;113.478;2024-03-06T08:38:29;93884.13;;;0.19
70415;BMP280;57837;52.064;113.478;2024-03-06T08:41:33;93888.09;;;0.13
70415;BMP280;57837;52.064;113.478;2024-03-06T08:44:37;93884.69;;;-0.09
70415;BMP280;57837;52.064;113.478;2024-03-06T08:47:41;93883.13;;;-0.20
70415;BMP280;57837;52.064;113.478;2024-03-06T08:50:45;93887.22;;;-0.09
70415;BMP280;57837;52.064;113.478;2024-03-06T08:53:49;93886.84;;;-0.11
70415;BMP280;57837;52.064;113.478;2024-03-06T08:56:53;93889.47;;;0.00
70415;BMP280;57837;52.064;113.478;2024-03-06T09:00:00;93891.91;;;-0.14
70415;BMP280;57837;52.064;113.478;2024-03-06T09:03:04;93890.78;;;-0.20
70415;BMP280;57837;52.064;113.478;2024-03-06T09:06:07;93890.88;;;-0.06
70415;BMP280;57837;52.064;113.478;2024-03-06T09:09:11;93891.53;;;-0.16
70415;BMP280;57837;52.064;113.478;2024-03-06T09:12:18;93896.28;;;-0.11
70415;BMP280;57837;52.064;113.478;2024-03-06T09:15:22;93906.13;;;-0.10
70415;BMP280;57837;52.064;113.478;2024-03-06T09:18:26;93890.75;;;-0.24
70415;BMP280;57837;52.064;113.478;2024-03-06T09:21:30;93890.66;;;-0.35
70415;BMP280;57837;52.064;113.478;2024-03-06T09:24:34;93899.00;;;-0.34
70415;BMP280;57837;52.064;113.478;2024-03-06T09:27:40;93894.34;;;-0.32
70415;BMP280;57837;52.064;113.478;2024-03-06T09:30:43;93897.59;;;-0.31
70415;BMP280;57837;52.064;113.478;2024-03-06T09:33:49;93907.47;;;-0.23
70415;BMP280;57837;52.064;113.478;2024-03-06T09:36:53;93911.28;;;-0.43
70415;BMP280;57837;52.064;113.478;2024-03-06T09:39:57;93910.13;;;-0.49
70415;BMP280;57837;52.064;113.478;2024-03-06T09:43:03;93905.44;;;-0.47
70415;BMP280;57837;52.064;113.478;2024-03-06T09:46:07;93914.84;;;-0.48
70415;BMP280;57837;52.064;113.478;2024-03-06T09:49:14;93910.13;;;-0.49
70415;BMP280;57837;52.064;113.478;2024-03-06T09:52:17;93910.78;;;-0.59
70415;BMP280;57837;52.064;113.478;2024-03-06T09:55:21;93916.09;;;-0.72
70415;BMP280;57837;52.064;113.478;2024-03-06T09:58:25;93916.72;;;-0.85
70415;BMP280;57837;52.064;113.478;2024-03-06T10:01:29;93917.66;;;-0.97
70415;BMP280;57837;52.064;113.478;2024-03-06T10:04:33;93925.09;;;-1.15
70415;BMP280;57837;52.064;113.478;2024-03-06T10:07:36;93923.47;;;-1.30
70415;BMP280;57837;52.064;113.478;2024-03-06T10:10:41;93912.81;;;-1.39
70415;BMP280;57837;52.064;113.478;2024-03-06T10:13:45;93915.13;;;-1.57
70415;BMP280;57837;52.064;113.478;2024-03-06T10:16:52;93922.28;;;-1.66
70415;BMP280;57837;52.064;113.478;2024-03-06T10:19:56;93925.75;;;-1.78
70415;BMP280;57837;52.064;113.478;2024-03-06T10:23:04;93931.69;;;-1.89
70415;BMP280;57837;52.064;113.478;2024-03-06T10:26:08;93930.22;;;-1.90
70415;BMP280;57837;52.064;113.478;2024-03-06T10:29:16;93932.56;;;-2.05
70415;BMP280;57837;52.064;113.478;2024-03-06T10:32:20;93928.66;;;-2.25
70415;BMP280;57837;52.064;113.478;2024-03-06T10:35:24;93939.94;;;-2.42
70415;BMP280;57837;52.064;113.478;2024-03-06T10:38:30;93946.31;;;-2.51
70415;BMP280;57837;52.064;113.478;2024-03-06T10:41:37;93947.66;;;-2.57
70415;BMP280;57837;52.064;113.478;2024-03-06T10:44:52;93949.63;;;-2.67
70415;BMP280;57837;52.064;113.478;2024-03-06T10:47:59;93956.16;;;-2.66
70415;BMP280;57837;52.064;113.478;2024-03-06T10:51:07;93962.22;;;-2.70
70415;BMP280;57837;52.064;113.478;2024-03-06T10:54:13;93963.28;;;-2.71
70415;BMP280;57837;52.064;113.478;2024-03-06T10:57:18;93960.97;;;-2.80
70415;BMP280;57837;52.064;113.478;2024-03-06T11:00:24;93971.03;;;-2.83
70415;BMP280;57837;52.064;113.478;2024-03-06T11:03:30;93972.88;;;-3.00
70415;BMP280;57837;52.064;113.478;2024-03-06T11:06:34;93973.75;;;-3.11
70415;BMP280;57837;52.064;113.478;2024-03-06T11:09:38;93968.53;;;-3.18
70415;BMP280;57837;52.064;113.478;2024-03-06T11:12:42;93975.16;;;-3.14
70415;BMP280;57837;52.064;113.478;2024-03-06T11:15:53;93983.06;;;-3.15
70415;BMP280;57837;52.064;113.478;2024-03-06T11:19:08;93981.13;;;-3.22
70415;BMP280;57837;52.064;113.478;2024-03-06T11:22:12;93995.97;;;-3.20
70415;BMP280;57837;52.064;113.478;2024-03-06T11:28:58;93992.75;;;-3.37
70415;BMP280;57837;52.064;113.478;2024-03-06T11:32:06;93993.56;;;-3.48
70415;BMP280;57837;52.064;113.478;2024-03-06T11:35:12;93997.91;;;-3.65
70415;BMP280;57837;52.064;113.478;2024-03-06T11:38:19;94005.31;;;-3.72
70415;BMP280;57837;52.064;113.478;2024-03-06T11:41:26;94005.31;;;-3.87
70415;BMP280;57837;52.064;113.478;2024-03-06T11:44:32;94005.88;;;-3.94
70415;BMP280;57837;52.064;113.478;2024-03-06T11:47:56;94017.59;;;-4.02
70415;BMP280;57837;52.064;113.478;2024-03-06T11:51:01;94015.56;;;-4.12
70415;BMP280;57837;52.064;113.478;2024-03-06T11:54:05;94015.88;;;-4.13
70415;BMP280;57837;52.064;113.478;2024-03-06T11:57:09;94017.38;;;-4.24
70415;BMP280;57837;52.064;113.478;2024-03-06T12:00:14;94021.00;;;-4.38
70415;BMP280;57837;52.064;113.478;2024-03-06T12:03:18;94024.97;;;-4.52
70415;BMP280;57837;52.064;113.478;2024-03-06T12:06:21;94024.50;;;-4.70
70415;BMP280;57837;52.064;113.478;2024-03-06T12:09:26;94027.84;;;-4.78
70415;BMP280;57837;52.064;113.478;2024-03-06T12:12:30;94027.03;;;-4.82
70415;BMP280;57837;52.064;113.478;2024-03-06T12:15:34;94027.13;;;-4.79
70415;BMP280;57837;52.064;113.478;2024-03-06T12:18:39;94032.38;;;-4.84
70415;BMP280;57837;52.064;113.478;2024-03-06T12:21:43;94032.50;;;-4.93
70415;BMP280;57837;52.064;113.478;2024-03-06T12:25:00;94039.44;;;-4.89
70415;BMP280;57837;52.064;113.478;2024-03-06T12:28:07;94038.28;;;-4.92
70415;BMP280;57837;52.064;113.478;2024-03-06T12:31:14;94043.56;;;-4.97
70415;BMP280;57837;52.064;113.478;2024-03-06T12:34:18;94045.66;;;-4.99
70415;BMP280;57837;52.064;113.478;2024-03-06T12:37:31;94053.84;;;-5.02
70415;BMP280;57837;52.064;113.478;2024-03-06T12:40:36;94042.63;;;-5.05
70415;BMP280;57837;52.064;113.478;2024-03-06T12:43:40;94054.06;;;-5.19
70415;BMP280;57837;52.064;113.478;2024-03-06T12:46:44;94051.53;;;-5.32
70415;BMP280;57837;52.064;113.478;2024-03-06T12:49:48;94047.66;;;-5.41
70415;BMP280;57837;52.064;113.478;2024-03-06T12:52:52;94049.19;;;-5.61
70415;BMP280;57837;52.064;113.478;2024-03-06T12:55:55;94052.00;;;-5.75
70415;BMP280;57837;52.064;113.478;2024-03-06T12:58:58;94055.56;;;-5.76
70415;BMP280;57837;52.064;113.478;2024-03-06T13:02:02;94057.22;;;-5.80
70415;BMP280;57837;52.064;113.478;2024-03-06T13:05:07;94049.19;;;-5.94
70415;BMP280;57837;52.064;113.478;2024-03-06T13:08:10;94066.63;;;-5.89
70415;BMP280;57837;52.064;113.478;2024-03-06T13:11:17;94063.84;;;-6.08
70415;BMP280;57837;52.064;113.478;2024-03-06T13:14:22;94067.19;;;-6.16
70415;BMP280;57837;52.064;113.478;2024-03-06T13:17:26;94062.19;;;-6.25
70415;BMP280;57837;52.064;113.478;2024-03-06T13:20:33;94069.81;;;-6.13
70415;BMP280;57837;52.064;113.478;2024-03-06T13:23:37;94064.34;;;-6.36
70415;BMP280;57837;52.064;113.478;2024-03-06T13:26:41;94066.44;;;-6.38
70415;BMP280;57837;52.064;113.478;2024-03-06T13:29:45;94073.84;;;-6.21
70415;BMP280;57837;52.064;113.478;2024-03-06T13:32:49;94064.31;;;-5.94
70415;BMP280;57837;52.064;113.478;2024-03-06T13:35:53;94073.19;;;-5.76
70415;BMP280;57837;52.064;113.478;2024-03-06T13:38:59;94069.44;;;-5.70
70415;BMP280;57837;52.064;113.478;2024-03-06T13:42:03;94068.34;;;-6.14
70415;BMP280;57837;52.064;113.478;2024-03-06T13:45:07;94074.13;;;-6.34
70415;BMP280;57837;52.064;113.478;2024-03-06T13:48:18;94073.00;;;-6.45
70415;BMP280;57837;52.064;113.478;2024-03-06T13:51:23;94072.50;;;-6.60
70415;BMP280;57837;52.064;113.478;2024-03-06T13:54:26;94074.34;;;-6.48
70415;BMP280;57837;52.064;113.478;2024-03-06T13:57:32;94074.34;;;-6.48
70415;BMP280;57837;52.064;113.478;2024-03-06T14:00:38;94080.09;;;-6.47
70415;BMP280;57837;52.064;113.478;2024-03-06T14:03:43;94081.66;;;-6.55
70415;BMP280;57837;52.064;113.478;2024-03-06T14:06:46;94076.84;;;-6.69
70415;BMP280;57837;52.064;113.478;2024-03-06T14:09:52;94079.00;;;-6.59
70415;BMP280;57837;52.064;113.478;2024-03-06T14:12:56;94079.94;;;-6.42
70415;BMP280;57837;52.064;113.478;2024-03-06T14:16:01;94095.06;;;-6.42
70415;BMP280;57837;52.064;113.478;2024-03-06T14:19:04;94091.63;;;-6.38
70415;BMP280;57837;52.064;113.478;2024-03-06T14:22:09;94093.03;;;-6.07
70415;BMP280;57837;52.064;113.478;2024-03-06T14:25:14;94093.91;;;-6.03
70415;BMP280;57837;52.064;113.478;2024-03-06T14:28:18;94099.09;;;-6.08
70415;BMP280;57837;52.064;113.478;2024-03-06T14:31:21;94104.38;;;-6.22
70415;BMP280;57837;52.064;113.478;2024-03-06T14:34:26;94106.03;;;-6.26
70415;BMP280;57837;52.064;113.478;2024-03-06T14:37:30;94094.91;;;-6.25
70415;BMP280;57837;52.064;113.478;2024-03-06T14:40:34;94103.28;;;-6.12
70415;BMP280;57837;52.064;113.478;2024-03-06T14:43:39;94107.22;;;-6.03
70415;BMP280;57837;52.064;113.478;2024-03-06T14:46:43;94100.06;;;-6.01
70415;BMP280;57837;52.064;113.478;2024-03-06T14:49:47;94105.03;;;-5.92
70415;BMP280;57837;52.064;113.478;2024-03-06T14:52:51;94107.25;;;-5.91
70415;BMP280;57837;52.064;113.478;2024-03-06T14:55:55;94104.88;;;-5.87
70415;BMP280;57837;52.064;113.478;2024-03-06T14:58:59;94112.44;;;-5.87
70415;BMP280;57837;52.064;113.478;2024-03-06T15:02:03;94117.63;;;-5.92
70415;BMP280;57837;52.064;113.478;2024-03-06T15:05:07;94122.50;;;-6.08
70415;BMP280;57837;52.064;113.478;2024-03-06T15:08:11;94119.66;;;-6.27
70415;BMP280;57837;52.064;113.478;2024-03-06T15:11:15;94107.38;;;-6.29
70415;BMP280;57837;52.064;113.478;2024-03-06T15:14:20;94117.19;;;-6.57
70415;BMP280;57837;52.064;113.478;2024-03-06T15:17:24;94117.09;;;-6.69
70415;BMP280;57837;52.064;113.478;2024-03-06T15:20:31;94116.19;;;-6.94
70415;BMP280;57837;52.064;113.478;2024-03-06T15:23:38;94124.03;;;-7.04
70415;BMP280;57837;52.064;113.478;2024-03-06T15:26:42;94119.22;;;-7.18
70415;BMP280;57837;52.064;113.478;2024-03-06T15:29:46;94122.47;;;-7.26
70415;BMP280;57837;52.064;113.478;2024-03-06T15:32:50;94120.56;;;-7.20
70415;BMP280;57837;52.064;113.478;2024-03-06T15:35:54;94123.94;;;-7.25
70415;BMP280;57837;52.064;113.478;2024-03-06T15:38:59;94131.56;;;-7.68
70415;BMP280;57837;52.064;113.478;2024-03-06T15:42:04;94119.59;;;-7.80
70415;BMP280;57837;52.064;113.478;2024-03-06T15:45:08;94124.47;;;-7.83
70415;BMP280;57837;52.064;113.478;2024-03-06T15:48:12;94117.81;;;-7.88
70415;BMP280;57837;52.064;113.478;2024-03-06T15:51:18;94123.00;;;-7.84
70415;BMP280;57837;52.064;113.478;2024-03-06T15:54:22;94132.59;;;-7.95
70415;BMP280;57837;52.064;113.478;2024-03-06T15:57:25;94123.72;;;-8.10
70415;BMP280;57837;52.064;113.478;2024-03-06T16:00:30;94135.97;;;-8.25
70415;BMP280;57837;52.064;113.478;2024-03-06T16:03:33;94134.88;;;-8.42
70415;BMP280;57837;52.064;113.478;2024-03-06T16:06:37;94147.13;;;-8.49
70415;BMP280;57837;52.064;113.478;2024-03-06T16:09:42;94154.16;;;-8.59
70415;BMP280;57837;52.064;113.478;2024-03-06T16:12:46;94150.50;;;-8.45
70415;BMP280;57837;52.064;113.478;2024-03-06T16:15:49;94143.44;;;-8.43
70415;BMP280;57837;52.064;113.478;2024-03-06T16:18:52;94144.34;;;-8.39
70415;BMP280;57837;52.064;113.478;2024-03-06T16:21:56;94154.06;;;-8.37
70415;BMP280;57837;52.064;113.478;2024-03-06T16:25:00;94142.38;;;-8.59
70415;BMP280;57837;52.064;113.478;2024-03-06T16:28:03;94147.19;;;-8.71
70415;BMP280;57837;52.064;113.478;2024-03-06T16:31:06;94153.25;;;-8.95
70415;BMP280;57837;52.064;113.478;2024-03-06T16:34:10;94148.81;;;-8.98
70415;BMP280;57837;52.064;113.478;2024-03-06T16:37:14;94154.25;;;-9.04
70415;BMP280;57837;52.064;113.478;2024-03-06T16:40:18;94152.19;;;-9.11
70415;BMP280;57837;52.064;113.478;2024-03-06T16:43:21;94148.13;;;-9.20
70415;BMP280;57837;52.064;113.478;2024-03-06T16:46:23;94160.03;;;-9.26
70415;BMP280;57837;52.064;113.478;2024-03-06T16:49:31;94161.09;;;-9.41
70415;BMP280;57837;52.064;113.478;2024-03-06T16:52:34;94160.38;;;-9.41
70415;BMP280;57837;52.064;113.478;2024-03-06T16:55:38;94160.03;;;-9.48
70415;BMP280;57837;52.064;113.478;2024-03-06T16:58:42;94155.41;;;-9.55
70415;BMP280;57837;52.064;113.478;2024-03-06T17:01:47;94158.88;;;-9.65
70415;BMP280;57837;52.064;113.478;2024-03-06T17:04:51;94169.00;;;-9.70
70415;BMP280;57837;52.064;113.478;2024-03-06T17:07:55;94172.34;;;-9.74
70415;BMP280;57837;52.064;113.478;2024-03-06T17:10:59;94176.81;;;-9.85
70415;BMP280;57837;52.064;113.478;2024-03-06T17:14:03;94182.56;;;-9.85
70415;BMP280;57837;52.064;113.478;2024-03-06T17:17:06;94183.56;;;-9.72
70415;BMP280;57837;52.064;113.478;2024-03-06T17:20:10;94182.22;;;-9.56
70415;BMP280;57837;52.064;113.478;2024-03-06T17:23:14;94187.38;;;-9.38